• Join FlightAware (Why Join?)
  • Login
  • US Flag 
01:39PM EDT


 

Airport Tracker/Info


-or-


 

Live Flight TrackerFlight Track Log ✈ TAM3447 ✈ 17-Nov-2013 ✈ SBBE / BEL - SBBR / BSB

Flight Track Log - Related Links

Times and Time Zones

All times are in EST time to prevent confusion due to time zone crossing. See the TAM3447 flight status page for this flight to view local times or setup timezone preferences in your user account.

Time Position Orientation Groundspeed Altitude Reporting Facility
EST Latitude Longitude Course Direction KTS MPH feet Rate Location/Type
07:28PM -5.1395 -48.3335 178° South  Level Estimated
07:29PM -5.2312 -48.3301 178° South  Level Estimated
07:30PM -5.3229 -48.3265 178° South  Level Estimated
07:31PM -5.4146 -48.3231 178° South  Level Estimated
07:32PM -5.5063 -48.3195 178° South  Level Estimated
07:33PM -5.5980 -48.3161 178° South  Level Estimated
07:34PM -5.6897 -48.3125 178° South  Level Estimated
07:35PM -5.7814 -48.3091 178° South  Level Estimated
07:36PM -5.8732 -48.3055 178° South  Level Estimated
07:37PM -5.9649 -48.3020 178° South  Level Estimated
07:38PM -6.0566 -48.2985 178° South  Level Estimated
07:39PM -6.1483 -48.2950 178° South  Level Estimated
07:40PM -6.2400 -48.2915 178° South  Level Estimated
07:41PM -6.3317 -48.2880 178° South  Level Estimated
07:42PM -6.4234 -48.2845 178° South  Level Estimated
07:43PM -6.5151 -48.2810 178° South  Level Estimated
07:44PM -6.6068 -48.2775 178° South  Level Estimated
07:45PM -6.6986 -48.2739 178° South  Level Estimated
07:46PM -6.7903 -48.2704 178° South  Level Estimated
07:47PM -6.8820 -48.2669 178° South  Level Estimated
07:48PM -6.9737 -48.2634 178° South  Level Estimated
07:49PM -7.0654 -48.2599 178° South  Level Estimated
07:50PM -7.1571 -48.2563 178° South  Level Estimated
07:51PM -7.2488 -48.2528 178° South  Level Estimated
07:52PM -7.3405 -48.2493 178° South  Level Estimated
07:53PM -7.4322 -48.2458 178° South  Level Estimated
07:54PM -7.5239 -48.2422 178° South  Level Estimated
07:55PM -7.6157 -48.2387 178° South  Level Estimated
07:56PM -7.7074 -48.2352 178° South  Level Estimated
07:57PM -7.7991 -48.2316 178° South  Level Estimated
07:58PM -7.8908 -48.2281 178° South  Level Estimated
07:59PM -7.9825 -48.2246 178° South  Level Estimated
08:00PM -8.0742 -48.2210 178° South  Level Estimated
08:01PM -8.1659 -48.2175 178° South  Level Estimated
08:02PM -8.2576 -48.2140 178° South  Level Estimated
08:03PM -8.3493 -48.2104 178° South  Level Estimated
08:04PM -8.4410 -48.2069 178° South  Level Estimated
08:05PM -8.5328 -48.2033 178° South  Level Estimated
08:06PM -8.6245 -48.1998 178° South  Level Estimated
08:07PM -8.7162 -48.1962 178° South  Level Estimated
08:08PM -8.8079 -48.1927 178° South  Level Estimated
08:09PM -8.8996 -48.1891 178° South  Level Estimated
08:10PM -8.9913 -48.1856 178° South  Level Estimated
08:11PM -9.0830 -48.1820 178° South  Level Estimated
08:12PM -9.1747 -48.1785 178° South  Level Estimated
08:13PM -9.2664 -48.1749 178° South  Level Estimated
08:14PM -9.3581 -48.1713 178° South  Level Estimated
08:15PM -9.4499 -48.1678 178° South  Level Estimated
08:16PM -9.5416 -48.1642 178° South  Level Estimated
08:17PM -9.6333 -48.1606 178° South  Level Estimated
08:18PM -9.7250 -48.1571 178° South  Level Estimated
08:19PM -9.8167 -48.1535 178° South  Level Estimated
08:20PM -9.9084 -48.1499 178° South  Level Estimated
08:21PM -10.0001 -48.1463 178° South  Level Estimated
08:22PM -10.0918 -48.1428 178° South  Level Estimated
08:23PM -10.1835 -48.1392 178° South  Level Estimated
08:24PM -10.2752 -48.1356 178° South  Level Estimated
08:25PM -10.3670 -48.1320 178° South  Level Estimated
08:26PM -10.4587 -48.1284 178° South  Level Estimated
08:27PM -10.5504 -48.1248 178° South  Level Estimated
08:28PM -10.6421 -48.1213 178° South  Level Estimated
08:29PM -10.7338 -48.1177 178° South  Level Estimated
08:30PM -10.8255 -48.1141 178° South  Level Estimated
08:31PM -10.9172 -48.1105 178° South  Level Estimated
08:32PM -11.0089 -48.1069 178° South  Level Estimated
08:33PM -11.1006 -48.1033 178° South  Level Estimated
08:34PM -11.1923 -48.0997 178° South  Level Estimated
08:35PM -11.2840 -48.0961 178° South  Level Estimated
08:36PM -11.3758 -48.0924 178° South  Level Estimated
08:37PM -11.4675 -48.0888 178° South  Level Estimated
08:38PM -11.5592 -48.0852 178° South  Level Estimated
08:39PM -11.6509 -48.0816 178° South  Level Estimated
08:40PM -11.7426 -48.0780 178° South  Level Estimated
08:41PM -11.8343 -48.0744 178° South  Level Estimated
08:42PM -11.9260 -48.0708 178° South  Level Estimated
08:43PM -12.0177 -48.0671 178° South  Level Estimated
08:44PM -12.1094 -48.0635 178° South  Level Estimated
08:45PM -12.2011 -48.0599 178° South  Level Estimated
08:46PM -12.2929 -48.0562 178° South  Level Estimated
08:47PM -12.3846 -48.0526 178° South  Level Estimated
08:48PM -12.4763 -48.0490 178° South  Level Estimated
08:49PM -12.5680 -48.0453 178° South  Level Estimated
08:50PM -12.6597 -48.0417 178° South  Level Estimated
08:51PM -12.7514 -48.0380 178° South  Level Estimated
08:52PM -12.8431 -48.0344 178° South  Level Estimated
08:53PM -12.9348 -48.0307 178° South  Level Estimated
08:54PM -13.0265 -48.0271 178° South  Level Estimated
08:55PM -13.1182 -48.0234 178° South  Level Estimated
08:56PM -13.2100 -48.0198 178° South  Level Estimated
08:57PM -13.3017 -48.0161 178° South  Level Estimated
08:58PM -13.3934 -48.0125 178° South  Level Estimated
08:59PM -13.4851 -48.0088 178° South  Level Estimated
09:00PM -13.5768 -48.0051 178° South  Level Estimated
09:01PM -13.6685 -48.0014 178° South  Level Estimated
09:02PM -13.7602 -47.9978 178° South  Level Estimated
09:03PM -13.8519 -47.9941 178° South  Level Estimated
09:04PM -13.9436 -47.9904 178° South  Level Estimated
09:05PM -14.0353 -47.9867 178° South  Level Estimated
09:06PM -14.1271 -47.9830 178° South  Level Estimated
09:07PM -14.2188 -47.9793 178° South  Level Estimated
09:08PM -14.3105 -47.9757 178° South  Level Estimated
09:09PM -14.4022 -47.9720 178° South  Level Estimated
09:10PM -14.4939 -47.9683 178° South  Level Estimated
09:11PM -14.5856 -47.9646 178° South  Level Estimated
09:12PM -14.6773 -47.9608 178° South  Level Estimated
09:13PM -14.7690 -47.9571 178° South  Level Estimated
09:14PM -14.8607 -47.9534 178° South  Level Estimated
09:15PM -14.9524 -47.9497 178° South  Level Estimated
09:16PM -15.0442 -47.9460 178° South  Level Estimated
09:17PM -15.1359 -47.9423 178° South  Level Estimated
09:18PM -15.2276 -47.9385 178° South  Level Estimated
09:19PM -15.3193 -47.9348 178° South  Level Estimated
09:20PM -15.4110 -47.9311 178° South  Level Estimated
09:21PM -15.5027 -47.9273 178° South  Level Estimated
09:22PM -15.5944 -47.9236 178° South  Level Estimated
09:23PM -15.6861 -47.9199 178° South  Level Estimated
09:24PM -15.7778 -47.9161 178° South  Level Estimated
09:25PM -15.8626 -47.9127 178° South  Level Estimated
09:26PM -15.8626 -47.9127 128° Southeast  Level Estimated
09:27PM -15.8626 -47.9127 128° Southeast  Level Estimated
09:28PM -15.8626 -47.9127 128° Southeast  Level Estimated
09:29PM -15.8626 -47.9127 128° Southeast  Level Estimated
09:30PM -15.8626 -47.9127 128° Southeast  Level Estimated
09:31PM -15.8626 -47.9127 128° Southeast  Level Estimated
09:32PM -15.8626 -47.9127 128° Southeast  Level Estimated
09:33PM -15.8626 -47.9127 128° Southeast  Level Estimated
09:34PM -15.8626 -47.9127 128° Southeast  Level Estimated
09:35PM -15.8626 -47.9127 128° Southeast  Level Estimated
09:36PM -15.8626 -47.9127 128° Southeast  Level Estimated
09:37PM -15.8626 -47.9127 128° Southeast  Level Estimated
09:38PM -15.8626 -47.9127 128° Southeast  Level Estimated
09:39PM -15.8626 -47.9127 128° Southeast  Level Estimated
09:40PM -15.8626 -47.9127 128° Southeast  Level Estimated
09:41PM -15.8626 -47.9127 128° Southeast  Level Estimated